sensor_id;sensor_type;location;lat;lon;timestamp;temperature;humidity
39601;DHT22;25297;44.758;11.310;2023-02-17T00:01:01;8.60;99.90
39601;DHT22;25297;44.758;11.310;2023-02-17T00:03:33;8.60;99.90
39601;DHT22;25297;44.758;11.310;2023-02-17T00:05:58;8.60;99.90
39601;DHT22;25297;44.758;11.310;2023-02-17T00:08:24;8.60;99.90
39601;DHT22;25297;44.758;11.310;2023-02-17T00:10:57;8.50;99.90
39601;DHT22;25297;44.758;11.310;2023-02-17T00:13:23;8.50;99.90
39601;DHT22;25297;44.758;11.310;2023-02-17T00:15:49;8.50;99.90
39601;DHT22;25297;44.758;11.310;2023-02-17T00:18:15;8.40;99.90
39601;DHT22;25297;44.758;11.310;2023-02-17T00:20:40;8.40;99.90
39601;DHT22;25297;44.758;11.310;2023-02-17T00:23:06;8.40;99.90
39601;DHT22;25297;44.758;11.310;2023-02-17T00:25:31;8.30;99.90
39601;DHT22;25297;44.758;11.310;2023-02-17T00:27:57;8.30;99.90
39601;DHT22;25297;44.758;11.310;2023-02-17T00:30:22;8.30;99.90
39601;DHT22;25297;44.758;11.310;2023-02-17T00:32:48;8.30;99.90
39601;DHT22;25297;44.758;11.310;2023-02-17T00:35:14;8.20;99.90
39601;DHT22;25297;44.758;11.310;2023-02-17T00:37:40;8.20;99.90
39601;DHT22;25297;44.758;11.310;2023-02-17T00:40:10;8.20;99.90
39601;DHT22;25297;44.758;11.310;2023-02-17T00:42:36;8.20;99.90
39601;DHT22;25297;44.758;11.310;2023-02-17T00:45:03;8.20;99.90
39601;DHT22;25297;44.758;11.310;2023-02-17T00:47:28;8.20;99.90
39601;DHT22;25297;44.758;11.310;2023-02-17T00:49:55;8.20;99.90
39601;DHT22;25297;44.758;11.310;2023-02-17T00:52:20;8.20;99.90
39601;DHT22;25297;44.758;11.310;2023-02-17T00:54:46;8.20;99.90
39601;DHT22;25297;44.758;11.310;2023-02-17T00:57:12;8.10;99.90
39601;DHT22;25297;44.758;11.310;2023-02-17T00:59:37;8.20;99.90
39601;DHT22;25297;44.758;11.310;2023-02-17T01:02:03;8.10;99.90
39601;DHT22;25297;44.758;11.310;2023-02-17T01:04:28;8.10;99.90
39601;DHT22;25297;44.758;11.310;2023-02-17T01:06:54;8.10;99.90
39601;DHT22;25297;44.758;11.310;2023-02-17T01:09:20;8.00;99.90
39601;DHT22;25297;44.758;11.310;2023-02-17T01:11:45;8.00;99.90
39601;DHT22;25297;44.758;11.310;2023-02-17T01:14:12;8.00;99.90
39601;DHT22;25297;44.758;11.310;2023-02-17T01:16:43;8.10;99.90
39601;DHT22;25297;44.758;11.310;2023-02-17T01:19:12;7.90;99.90
39601;DHT22;25297;44.758;11.310;2023-02-17T01:21:38;7.90;99.90
39601;DHT22;25297;44.758;11.310;2023-02-17T01:24:06;7.90;99.90
39601;DHT22;25297;44.758;11.310;2023-02-17T01:26:33;7.80;99.90
39601;DHT22;25297;44.758;11.310;2023-02-17T01:29:00;7.90;99.90
39601;DHT22;25297;44.758;11.310;2023-02-17T01:31:27;7.80;99.90
39601;DHT22;25297;44.758;11.310;2023-02-17T01:33:54;7.70;99.90
39601;DHT22;25297;44.758;11.310;2023-02-17T01:36:20;7.70;99.90
39601;DHT22;25297;44.758;11.310;2023-02-17T01:38:46;7.60;99.90
39601;DHT22;25297;44.758;11.310;2023-02-17T01:41:13;7.50;99.90
39601;DHT22;25297;44.758;11.310;2023-02-17T01:43:39;7.50;99.90
39601;DHT22;25297;44.758;11.310;2023-02-17T01:46:05;7.50;99.90
39601;DHT22;25297;44.758;11.310;2023-02-17T01:48:44;7.40;99.90
39601;DHT22;25297;44.758;11.310;2023-02-17T01:51:35;7.50;99.90
39601;DHT22;25297;44.758;11.310;2023-02-17T01:54:10;7.40;99.90
39601;DHT22;25297;44.758;11.310;2023-02-17T01:56:40;7.40;99.90
39601;DHT22;25297;44.758;11.310;2023-02-17T01:59:19;7.30;99.90
39601;DHT22;25297;44.758;11.310;2023-02-17T02:01:47;7.30;99.90
39601;DHT22;25297;44.758;11.310;2023-02-17T02:04:16;7.30;99.90
39601;DHT22;25297;44.758;11.310;2023-02-17T02:06:44;7.30;99.90
39601;DHT22;25297;44.758;11.310;2023-02-17T02:09:18;7.30;99.90
39601;DHT22;25297;44.758;11.310;2023-02-17T02:11:47;7.20;99.90
39601;DHT22;25297;44.758;11.310;2023-02-17T02:14:13;7.20;99.90
39601;DHT22;25297;44.758;11.310;2023-02-17T02:25:19;6.90;99.90
39601;DHT22;25297;44.758;11.310;2023-02-17T02:33:59;6.80;99.10
39601;DHT22;25297;44.758;11.310;2023-02-17T02:36:27;6.80;99.00
39601;DHT22;25297;44.758;11.310;2023-02-17T02:38:57;6.80;99.00
39601;DHT22;25297;44.758;11.310;2023-02-17T02:41:36;6.80;99.00
39601;DHT22;25297;44.758;11.310;2023-02-17T02:44:06;6.90;99.10
39601;DHT22;25297;44.758;11.310;2023-02-17T02:46:32;6.90;98.90
39601;DHT22;25297;44.758;11.310;2023-02-17T02:48:58;6.90;98.70
39601;DHT22;25297;44.758;11.310;2023-02-17T02:54:16;7.00;98.80
39601;DHT22;25297;44.758;11.310;2023-02-17T03:05:22;7.10;98.40
39601;DHT22;25297;44.758;11.310;2023-02-17T03:07:52;7.20;98.40
39601;DHT22;25297;44.758;11.310;2023-02-17T03:10:19;7.20;98.40
39601;DHT22;25297;44.758;11.310;2023-02-17T03:12:45;7.30;98.40
39601;DHT22;25297;44.758;11.310;2023-02-17T03:15:31;7.30;98.20
39601;DHT22;25297;44.758;11.310;2023-02-17T03:17:59;7.30;98.10
39601;DHT22;25297;44.758;11.310;2023-02-17T03:20:27;7.40;98.00
39601;DHT22;25297;44.758;11.310;2023-02-17T03:22:54;7.30;97.90
39601;DHT22;25297;44.758;11.310;2023-02-17T03:25:20;7.40;97.80
39601;DHT22;25297;44.758;11.310;2023-02-17T03:27:46;7.40;97.80
39601;DHT22;25297;44.758;11.310;2023-02-17T03:30:12;7.40;97.80
39601;DHT22;25297;44.758;11.310;2023-02-17T03:32:38;7.40;97.80
39601;DHT22;25297;44.758;11.310;2023-02-17T03:35:04;7.40;97.60
39601;DHT22;25297;44.758;11.310;2023-02-17T03:37:29;7.40;97.40
39601;DHT22;25297;44.758;11.310;2023-02-17T03:39:55;7.40;97.30
39601;DHT22;25297;44.758;11.310;2023-02-17T03:42:20;7.40;97.10
39601;DHT22;25297;44.758;11.310;2023-02-17T03:44:46;7.40;97.30
39601;DHT22;25297;44.758;11.310;2023-02-17T03:47:12;7.40;97.30
39601;DHT22;25297;44.758;11.310;2023-02-17T03:49:37;7.40;97.50
39601;DHT22;25297;44.758;11.310;2023-02-17T03:52:03;7.50;97.60
39601;DHT22;25297;44.758;11.310;2023-02-17T03:54:29;7.50;97.50
39601;DHT22;25297;44.758;11.310;2023-02-17T03:56:54;7.50;97.60
39601;DHT22;25297;44.758;11.310;2023-02-17T03:59:20;7.60;97.60
39601;DHT22;25297;44.758;11.310;2023-02-17T04:01:46;7.60;97.50
39601;DHT22;25297;44.758;11.310;2023-02-17T04:04:11;7.60;97.30
39601;DHT22;25297;44.758;11.310;2023-02-17T04:06:37;7.60;97.20
39601;DHT22;25297;44.758;11.310;2023-02-17T04:09:03;7.60;97.20
39601;DHT22;25297;44.758;11.310;2023-02-17T04:11:29;7.60;97.20
39601;DHT22;25297;44.758;11.310;2023-02-17T04:13:54;7.60;97.10
39601;DHT22;25297;44.758;11.310;2023-02-17T04:16:20;7.60;97.20
39601;DHT22;25297;44.758;11.310;2023-02-17T04:18:45;7.60;97.30
39601;DHT22;25297;44.758;11.310;2023-02-17T04:21:11;7.60;97.40
39601;DHT22;25297;44.758;11.310;2023-02-17T04:23:37;7.60;97.60
39601;DHT22;25297;44.758;11.310;2023-02-17T04:26:04;7.70;97.90
39601;DHT22;25297;44.758;11.310;2023-02-17T04:28:30;7.70;98.00
39601;DHT22;25297;44.758;11.310;2023-02-17T04:30:57;7.80;98.00
39601;DHT22;25297;44.758;11.310;2023-02-17T04:33:24;7.80;97.80
39601;DHT22;25297;44.758;11.310;2023-02-17T04:35:49;7.80;97.80
39601;DHT22;25297;44.758;11.310;2023-02-17T04:38:15;7.90;97.90
39601;DHT22;25297;44.758;11.310;2023-02-17T04:40:41;7.90;97.90
39601;DHT22;25297;44.758;11.310;2023-02-17T04:43:07;7.90;97.90
39601;DHT22;25297;44.758;11.310;2023-02-17T04:45:34;8.00;97.80
39601;DHT22;25297;44.758;11.310;2023-02-17T04:48:00;8.00;97.70
39601;DHT22;25297;44.758;11.310;2023-02-17T04:50:26;8.10;97.70
39601;DHT22;25297;44.758;11.310;2023-02-17T04:52:51;8.20;97.50
39601;DHT22;25297;44.758;11.310;2023-02-17T04:55:17;8.20;97.40
39601;DHT22;25297;44.758;11.310;2023-02-17T04:57:43;8.20;97.20
39601;DHT22;25297;44.758;11.310;2023-02-17T05:00:09;8.20;97.00
39601;DHT22;25297;44.758;11.310;2023-02-17T05:02:35;8.20;96.90
39601;DHT22;25297;44.758;11.310;2023-02-17T05:05:01;8.20;96.80
39601;DHT22;25297;44.758;11.310;2023-02-17T05:07:26;8.20;96.80
39601;DHT22;25297;44.758;11.310;2023-02-17T05:09:52;8.10;96.70
39601;DHT22;25297;44.758;11.310;2023-02-17T05:12:18;8.10;96.60
39601;DHT22;25297;44.758;11.310;2023-02-17T05:14:44;8.10;96.60
39601;DHT22;25297;44.758;11.310;2023-02-17T05:17:10;8.10;96.70
39601;DHT22;25297;44.758;11.310;2023-02-17T05:19:36;8.10;96.70
39601;DHT22;25297;44.758;11.310;2023-02-17T05:22:01;8.20;96.70
39601;DHT22;25297;44.758;11.310;2023-02-17T05:24:27;8.20;96.60
39601;DHT22;25297;44.758;11.310;2023-02-17T05:26:53;8.20;96.60
39601;DHT22;25297;44.758;11.310;2023-02-17T05:29:18;8.20;96.50
39601;DHT22;25297;44.758;11.310;2023-02-17T05:31:44;8.20;96.60
39601;DHT22;25297;44.758;11.310;2023-02-17T05:34:10;8.20;96.50
39601;DHT22;25297;44.758;11.310;2023-02-17T05:36:36;8.20;96.40
39601;DHT22;25297;44.758;11.310;2023-02-17T05:39:02;8.20;96.50
39601;DHT22;25297;44.758;11.310;2023-02-17T05:41:27;8.20;96.30
39601;DHT22;25297;44.758;11.310;2023-02-17T05:43:53;8.20;96.40
39601;DHT22;25297;44.758;11.310;2023-02-17T05:46:19;8.20;96.40
39601;DHT22;25297;44.758;11.310;2023-02-17T05:48:44;8.30;96.40
39601;DHT22;25297;44.758;11.310;2023-02-17T05:51:10;8.30;96.00
39601;DHT22;25297;44.758;11.310;2023-02-17T05:53:38;8.30;95.80
39601;DHT22;25297;44.758;11.310;2023-02-17T05:56:04;8.30;95.70
39601;DHT22;25297;44.758;11.310;2023-02-17T05:58:30;8.30;95.40
39601;DHT22;25297;44.758;11.310;2023-02-17T06:00:55;8.30;95.20
39601;DHT22;25297;44.758;11.310;2023-02-17T06:03:21;8.30;95.30
39601;DHT22;25297;44.758;11.310;2023-02-17T06:05:47;8.30;95.20
39601;DHT22;25297;44.758;11.310;2023-02-17T06:08:12;8.30;95.10
39601;DHT22;25297;44.758;11.310;2023-02-17T06:10:39;8.30;95.10
39601;DHT22;25297;44.758;11.310;2023-02-17T06:13:05;8.30;94.90
39601;DHT22;25297;44.758;11.310;2023-02-17T06:15:31;8.30;94.80
39601;DHT22;25297;44.758;11.310;2023-02-17T06:17:58;8.30;94.80
39601;DHT22;25297;44.758;11.310;2023-02-17T06:20:23;8.30;94.70
39601;DHT22;25297;44.758;11.310;2023-02-17T06:22:49;8.30;94.40
39601;DHT22;25297;44.758;11.310;2023-02-17T06:25:15;8.30;94.40
39601;DHT22;25297;44.758;11.310;2023-02-17T06:27:41;8.30;94.50
39601;DHT22;25297;44.758;11.310;2023-02-17T06:30:09;8.30;94.40
39601;DHT22;25297;44.758;11.310;2023-02-17T06:32:35;8.30;94.30
39601;DHT22;25297;44.758;11.310;2023-02-17T06:35:01;8.30;94.30
39601;DHT22;25297;44.758;11.310;2023-02-17T06:37:27;8.40;94.30
39601;DHT22;25297;44.758;11.310;2023-02-17T06:39:53;8.40;94.30
39601;DHT22;25297;44.758;11.310;2023-02-17T06:42:18;8.40;94.20
39601;DHT22;25297;44.758;11.310;2023-02-17T06:44:44;8.40;94.10
39601;DHT22;25297;44.758;11.310;2023-02-17T06:47:10;8.50;94.20
39601;DHT22;25297;44.758;11.310;2023-02-17T06:49:35;8.50;94.10
39601;DHT22;25297;44.758;11.310;2023-02-17T06:52:01;8.50;94.00
39601;DHT22;25297;44.758;11.310;2023-02-17T06:54:27;8.50;94.10
39601;DHT22;25297;44.758;11.310;2023-02-17T06:56:52;8.60;94.10
39601;DHT22;25297;44.758;11.310;2023-02-17T06:59:18;8.60;94.20
39601;DHT22;25297;44.758;11.310;2023-02-17T07:01:43;8.60;94.20
39601;DHT22;25297;44.758;11.310;2023-02-17T07:04:09;8.70;94.10
39601;DHT22;25297;44.758;11.310;2023-02-17T07:06:35;8.70;94.00
39601;DHT22;25297;44.758;11.310;2023-02-17T07:09:01;8.70;94.00
39601;DHT22;25297;44.758;11.310;2023-02-17T07:11:27;8.70;94.00
39601;DHT22;25297;44.758;11.310;2023-02-17T07:13:56;8.80;94.00
39601;DHT22;25297;44.758;11.310;2023-02-17T07:16:22;8.80;93.90
39601;DHT22;25297;44.758;11.310;2023-02-17T07:18:47;8.80;93.80
39601;DHT22;25297;44.758;11.310;2023-02-17T07:21:13;8.80;93.80
39601;DHT22;25297;44.758;11.310;2023-02-17T07:23:39;8.80;93.90
39601;DHT22;25297;44.758;11.310;2023-02-17T07:26:07;8.90;93.70
39601;DHT22;25297;44.758;11.310;2023-02-17T07:28:37;8.90;93.60
39601;DHT22;25297;44.758;11.310;2023-02-17T07:31:07;8.80;93.70
39601;DHT22;25297;44.758;11.310;2023-02-17T07:33:33;8.90;94.00
39601;DHT22;25297;44.758;11.310;2023-02-17T07:35:59;8.90;93.90
39601;DHT22;25297;44.758;11.310;2023-02-17T07:38:24;8.90;94.00
39601;DHT22;25297;44.758;11.310;2023-02-17T07:40:50;8.90;94.20
39601;DHT22;25297;44.758;11.310;2023-02-17T07:43:16;8.90;94.40
39601;DHT22;25297;44.758;11.310;2023-02-17T07:45:41;9.00;94.60
39601;DHT22;25297;44.758;11.310;2023-02-17T07:48:07;9.00;94.80
39601;DHT22;25297;44.758;11.310;2023-02-17T07:50:33;9.00;94.90
39601;DHT22;25297;44.758;11.310;2023-02-17T07:52:59;9.10;94.80
39601;DHT22;25297;44.758;11.310;2023-02-17T07:55:25;9.10;94.60
39601;DHT22;25297;44.758;11.310;2023-02-17T07:57:50;9.20;94.70
39601;DHT22;25297;44.758;11.310;2023-02-17T08:00:17;9.20;94.80
39601;DHT22;25297;44.758;11.310;2023-02-17T08:02:42;9.30;94.80
39601;DHT22;25297;44.758;11.310;2023-02-17T08:05:08;9.40;94.90
39601;DHT22;25297;44.758;11.310;2023-02-17T08:07:34;9.40;95.10
39601;DHT22;25297;44.758;11.310;2023-02-17T08:10:00;9.50;95.50
39601;DHT22;25297;44.758;11.310;2023-02-17T08:12:44;9.50;95.60
39601;DHT22;25297;44.758;11.310;2023-02-17T08:15:24;9.60;95.50
39601;DHT22;25297;44.758;11.310;2023-02-17T08:17:50;9.70;95.30
39601;DHT22;25297;44.758;11.310;2023-02-17T08:20:17;9.70;95.20
39601;DHT22;25297;44.758;11.310;2023-02-17T08:22:43;9.70;95.10
39601;DHT22;25297;44.758;11.310;2023-02-17T08:25:09;9.80;95.10
39601;DHT22;25297;44.758;11.310;2023-02-17T08:27:34;9.80;95.30
39601;DHT22;25297;44.758;11.310;2023-02-17T08:30:00;9.90;95.30
39601;DHT22;25297;44.758;11.310;2023-02-17T08:32:26;10.00;95.10
39601;DHT22;25297;44.758;11.310;2023-02-17T08:34:55;10.10;95.10
39601;DHT22;25297;44.758;11.310;2023-02-17T08:37:21;10.20;94.90
39601;DHT22;25297;44.758;11.310;2023-02-17T08:39:46;10.20;95.10
39601;DHT22;25297;44.758;11.310;2023-02-17T08:42:12;10.30;95.20
39601;DHT22;25297;44.758;11.310;2023-02-17T08:44:38;10.40;95.30
39601;DHT22;25297;44.758;11.310;2023-02-17T08:47:04;10.40;95.10
39601;DHT22;25297;44.758;11.310;2023-02-17T08:49:30;10.50;94.90
39601;DHT22;25297;44.758;11.310;2023-02-17T08:51:57;10.60;94.70
39601;DHT22;25297;44.758;11.310;2023-02-17T08:54:23;10.70;94.70
39601;DHT22;25297;44.758;11.310;2023-02-17T08:56:49;10.70;94.40
39601;DHT22;25297;44.758;11.310;2023-02-17T08:59:14;10.80;94.30
39601;DHT22;25297;44.758;11.310;2023-02-17T09:01:41;10.90;94.20
39601;DHT22;25297;44.758;11.310;2023-02-17T09:04:09;10.90;94.10
39601;DHT22;25297;44.758;11.310;2023-02-17T09:06:38;11.00;94.10
39601;DHT22;25297;44.758;11.310;2023-02-17T09:09:05;11.10;94.30
39601;DHT22;25297;44.758;11.310;2023-02-17T09:11:31;11.20;94.90
39601;DHT22;25297;44.758;11.310;2023-02-17T09:13:57;11.30;94.60
39601;DHT22;25297;44.758;11.310;2023-02-17T09:16:22;11.40;94.50
39601;DHT22;25297;44.758;11.310;2023-02-17T09:18:50;11.40;94.50
39601;DHT22;25297;44.758;11.310;2023-02-17T09:21:16;11.50;94.50
39601;DHT22;25297;44.758;11.310;2023-02-17T09:23:42;11.60;94.60
39601;DHT22;25297;44.758;11.310;2023-02-17T09:26:10;11.70;94.50
39601;DHT22;25297;44.758;11.310;2023-02-17T09:28:36;11.80;94.50
39601;DHT22;25297;44.758;11.310;2023-02-17T09:31:18;11.80;94.40
39601;DHT22;25297;44.758;11.310;2023-02-17T09:33:44;11.90;94.40
39601;DHT22;25297;44.758;11.310;2023-02-17T09:36:14;11.90;94.40
39601;DHT22;25297;44.758;11.310;2023-02-17T09:38:41;12.00;94.50
39601;DHT22;25297;44.758;11.310;2023-02-17T09:41:35;12.10;94.60
39601;DHT22;25297;44.758;11.310;2023-02-17T09:46:48;12.30;94.30
39601;DHT22;25297;44.758;11.310;2023-02-17T09:49:24;12.30;94.50
39601;DHT22;25297;44.758;11.310;2023-02-17T09:57:34;12.60;94.20
39601;DHT22;25297;44.758;11.310;2023-02-17T10:00:09;12.70;94.30
39601;DHT22;25297;44.758;11.310;2023-02-17T10:02:54;12.70;94.20
39601;DHT22;25297;44.758;11.310;2023-02-17T10:05:28;12.90;94.00
39601;DHT22;25297;44.758;11.310;2023-02-17T10:08:08;12.90;93.90
39601;DHT22;25297;44.758;11.310;2023-02-17T10:10:53;13.00;94.00
39601;DHT22;25297;44.758;11.310;2023-02-17T10:13:22;13.10;94.00
39601;DHT22;25297;44.758;11.310;2023-02-17T10:15:51;13.20;93.90
39601;DHT22;25297;44.758;11.310;2023-02-17T10:18:38;13.20;93.70
39601;DHT22;25297;44.758;11.310;2023-02-17T10:21:18;13.20;93.70
39601;DHT22;25297;44.758;11.310;2023-02-17T10:23:48;13.30;93.80
39601;DHT22;25297;44.758;11.310;2023-02-17T10:26:21;13.40;93.90
39601;DHT22;25297;44.758;11.310;2023-02-17T10:29:05;13.40;93.60
39601;DHT22;25297;44.758;11.310;2023-02-17T10:31:42;13.50;93.60
39601;DHT22;25297;44.758;11.310;2023-02-17T10:37:12;13.50;93.60
39601;DHT22;25297;44.758;11.310;2023-02-17T10:39:49;13.60;93.80
39601;DHT22;25297;44.758;11.310;2023-02-17T10:42:23;13.60;93.60
39601;DHT22;25297;44.758;11.310;2023-02-17T10:44:51;13.70;93.70
39601;DHT22;25297;44.758;11.310;2023-02-17T10:47:19;13.70;93.60
39601;DHT22;25297;44.758;11.310;2023-02-17T10:49:49;13.80;93.40
39601;DHT22;25297;44.758;11.310;2023-02-17T10:52:30;13.80;93.40
39601;DHT22;25297;44.758;11.310;2023-02-17T10:55:02;13.80;93.50
39601;DHT22;25297;44.758;11.310;2023-02-17T10:57:34;13.90;93.40
39601;DHT22;25297;44.758;11.310;2023-02-17T11:00:01;13.90;92.90
39601;DHT22;25297;44.758;11.310;2023-02-17T11:04:55;14.00;93.00
39601;DHT22;25297;44.758;11.310;2023-02-17T11:07:31;14.00;92.40
39601;DHT22;25297;44.758;11.310;2023-02-17T11:10:01;14.10;91.90
39601;DHT22;25297;44.758;11.310;2023-02-17T11:12:40;14.10;92.10
39601;DHT22;25297;44.758;11.310;2023-02-17T11:15:31;14.20;91.60
39601;DHT22;25297;44.758;11.310;2023-02-17T11:17:59;14.20;90.90
39601;DHT22;25297;44.758;11.310;2023-02-17T11:20:33;14.30;90.90
39601;DHT22;25297;44.758;11.310;2023-02-17T11:25:40;14.40;90.80
39601;DHT22;25297;44.758;11.310;2023-02-17T11:28:12;14.40;90.40
39601;DHT22;25297;44.758;11.310;2023-02-17T11:30:52;14.50;90.20
39601;DHT22;25297;44.758;11.310;2023-02-17T11:33:28;14.50;89.70
39601;DHT22;25297;44.758;11.310;2023-02-17T11:35:55;14.50;89.50
39601;DHT22;25297;44.758;11.310;2023-02-17T11:38:40;14.60;89.20
39601;DHT22;25297;44.758;11.310;2023-02-17T11:41:07;14.60;88.70
39601;DHT22;25297;44.758;11.310;2023-02-17T11:43:34;14.70;88.00
39601;DHT22;25297;44.758;11.310;2023-02-17T11:49:00;14.80;86.80
39601;DHT22;25297;44.758;11.310;2023-02-17T11:54:25;14.90;86.00
39601;DHT22;25297;44.758;11.310;2023-02-17T12:03:07;15.10;85.10
39601;DHT22;25297;44.758;11.310;2023-02-17T12:09:04;15.30;84.50
39601;DHT22;25297;44.758;11.310;2023-02-17T12:16:52;15.50;84.00
39601;DHT22;25297;44.758;11.310;2023-02-17T12:26:59;15.80;81.70
39601;DHT22;25297;44.758;11.310;2023-02-17T12:35:36;16.20;80.50
39601;DHT22;25297;44.758;11.310;2023-02-17T12:38:15;16.40;80.10
39601;DHT22;25297;44.758;11.310;2023-02-17T12:41:24;16.60;79.60
39601;DHT22;25297;44.758;11.310;2023-02-17T12:43:36;16.70;78.40
39601;DHT22;25297;44.758;11.310;2023-02-17T12:46:08;16.80;78.30
39601;DHT22;25297;44.758;11.310;2023-02-17T12:48:38;17.00;77.80
39601;DHT22;25297;44.758;11.310;2023-02-17T12:51:06;17.10;77.50
39601;DHT22;25297;44.758;11.310;2023-02-17T12:59:16;17.40;75.70
39601;DHT22;25297;44.758;11.310;2023-02-17T13:02:03;17.50;75.20
39601;DHT22;25297;44.758;11.310;2023-02-17T13:04:31;17.40;75.20
39601;DHT22;25297;44.758;11.310;2023-02-17T13:09:47;17.70;72.70
39601;DHT22;25297;44.758;11.310;2023-02-17T13:17:38;17.80;73.70
39601;DHT22;25297;44.758;11.310;2023-02-17T13:22:40;17.90;72.10
39601;DHT22;25297;44.758;11.310;2023-02-17T13:25:09;18.00;71.90
39601;DHT22;25297;44.758;11.310;2023-02-17T13:27:37;18.00;72.10
39601;DHT22;25297;44.758;11.310;2023-02-17T13:32:43;18.10;71.90
39601;DHT22;25297;44.758;11.310;2023-02-17T13:37:51;18.20;71.90
39601;DHT22;25297;44.758;11.310;2023-02-17T13:42:45;18.20;70.80
39601;DHT22;25297;44.758;11.310;2023-02-17T13:45:32;18.20;70.30
39601;DHT22;25297;44.758;11.310;2023-02-17T13:48:21;18.20;70.20
39601;DHT22;25297;44.758;11.310;2023-02-17T13:50:53;18.10;69.30
39601;DHT22;25297;44.758;11.310;2023-02-17T13:55:48;18.10;70.20
39601;DHT22;25297;44.758;11.310;2023-02-17T13:58:13;18.10;70.20
39601;DHT22;25297;44.758;11.310;2023-02-17T14:00:45;18.10;70.50
39601;DHT22;25297;44.758;11.310;2023-02-17T14:03:24;18.10;69.70
39601;DHT22;25297;44.758;11.310;2023-02-17T14:05:53;18.10;69.60
39601;DHT22;25297;44.758;11.310;2023-02-17T14:08:31;18.00;68.90
39601;DHT22;25297;44.758;11.310;2023-02-17T14:11:06;17.90;69.10
39601;DHT22;25297;44.758;11.310;2023-02-17T14:13:34;17.90;68.70
39601;DHT22;25297;44.758;11.310;2023-02-17T14:16:00;17.90;69.10
39601;DHT22;25297;44.758;11.310;2023-02-17T14:18:32;17.90;69.10
39601;DHT22;25297;44.758;11.310;2023-02-17T14:23:48;17.80;69.00
39601;DHT22;25297;44.758;11.310;2023-02-17T14:29:02;17.80;68.30
39601;DHT22;25297;44.758;11.310;2023-02-17T14:31:39;17.70;68.30
39601;DHT22;25297;44.758;11.310;2023-02-17T14:34:06;17.70;68.30
39601;DHT22;25297;44.758;11.310;2023-02-17T14:36:35;17.60;68.30
39601;DHT22;25297;44.758;11.310;2023-02-17T14:39:03;17.60;68.70
39601;DHT22;25297;44.758;11.310;2023-02-17T14:41:29;17.60;68.70
39601;DHT22;25297;44.758;11.310;2023-02-17T14:43:55;17.60;68.40
39601;DHT22;25297;44.758;11.310;2023-02-17T14:46:21;17.50;68.30
39601;DHT22;25297;44.758;11.310;2023-02-17T14:48:49;17.50;68.90
39601;DHT22;25297;44.758;11.310;2023-02-17T14:51:18;17.50;68.70
39601;DHT22;25297;44.758;11.310;2023-02-17T14:53:44;17.50;68.70
39601;DHT22;25297;44.758;11.310;2023-02-17T14:56:35;17.50;68.40
39601;DHT22;25297;44.758;11.310;2023-02-17T14:59:02;17.50;68.60
39601;DHT22;25297;44.758;11.310;2023-02-17T15:01:28;17.50;68.80
39601;DHT22;25297;44.758;11.310;2023-02-17T15:03:54;17.40;68.60
39601;DHT22;25297;44.758;11.310;2023-02-17T15:06:23;17.40;68.00
39601;DHT22;25297;44.758;11.310;2023-02-17T15:08:50;17.40;68.60
39601;DHT22;25297;44.758;11.310;2023-02-17T15:13:50;17.40;68.90
39601;DHT22;25297;44.758;11.310;2023-02-17T15:16:16;17.40;68.80
39601;DHT22;25297;44.758;11.310;2023-02-17T15:18:41;17.40;69.60
39601;DHT22;25297;44.758;11.310;2023-02-17T15:21:33;17.40;68.90
39601;DHT22;25297;44.758;11.310;2023-02-17T15:24:00;17.30;69.90
39601;DHT22;25297;44.758;11.310;2023-02-17T15:26:27;17.30;69.70
39601;DHT22;25297;44.758;11.310;2023-02-17T15:28:55;17.30;69.60
39601;DHT22;25297;44.758;11.310;2023-02-17T15:31:22;17.20;69.70
39601;DHT22;25297;44.758;11.310;2023-02-17T15:33:57;17.20;69.50
39601;DHT22;25297;44.758;11.310;2023-02-17T15:36:24;17.20;69.40
39601;DHT22;25297;44.758;11.310;2023-02-17T15:38:50;17.20;70.00
39601;DHT22;25297;44.758;11.310;2023-02-17T15:41:20;17.20;69.80
39601;DHT22;25297;44.758;11.310;2023-02-17T15:43:47;17.20;69.70
39601;DHT22;25297;44.758;11.310;2023-02-17T15:46:16;17.10;70.00
39601;DHT22;25297;44.758;11.310;2023-02-17T15:48:43;17.10;70.30
39601;DHT22;25297;44.758;11.310;2023-02-17T15:51:13;17.10;70.50
39601;DHT22;25297;44.758;11.310;2023-02-17T15:53:40;17.10;70.90
39601;DHT22;25297;44.758;11.310;2023-02-17T15:56:21;17.10;71.00
39601;DHT22;25297;44.758;11.310;2023-02-17T15:58:48;17.10;71.00
39601;DHT22;25297;44.758;11.310;2023-02-17T16:01:28;17.00;70.50
39601;DHT22;25297;44.758;11.310;2023-02-17T16:03:55;17.00;70.60
39601;DHT22;25297;44.758;11.310;2023-02-17T16:06:21;17.00;70.60
39601;DHT22;25297;44.758;11.310;2023-02-17T16:08:47;16.90;70.50
39601;DHT22;25297;44.758;11.310;2023-02-17T16:11:14;16.90;70.90
39601;DHT22;25297;44.758;11.310;2023-02-17T16:13:41;16.90;71.30
39601;DHT22;25297;44.758;11.310;2023-02-17T16:16:19;16.80;71.90
39601;DHT22;25297;44.758;11.310;2023-02-17T16:18:46;16.80;71.50
39601;DHT22;25297;44.758;11.310;2023-02-17T16:21:12;16.80;71.70
39601;DHT22;25297;44.758;11.310;2023-02-17T16:23:38;16.70;71.90
39601;DHT22;25297;44.758;11.310;2023-02-17T16:26:16;16.70;71.80
39601;DHT22;25297;44.758;11.310;2023-02-17T16:28:46;16.60;71.90
39601;DHT22;25297;44.758;11.310;2023-02-17T16:31:11;16.60;72.30
39601;DHT22;25297;44.758;11.310;2023-02-17T16:33:37;16.60;72.40
39601;DHT22;25297;44.758;11.310;2023-02-17T16:36:08;16.60;72.50
39601;DHT22;25297;44.758;11.310;2023-02-17T16:38:34;16.60;72.70
39601;DHT22;25297;44.758;11.310;2023-02-17T16:41:00;16.50;72.40
39601;DHT22;25297;44.758;11.310;2023-02-17T16:43:25;16.50;72.50
39601;DHT22;25297;44.758;11.310;2023-02-17T16:45:55;16.40;72.50
39601;DHT22;25297;44.758;11.310;2023-02-17T16:48:23;16.30;72.30
39601;DHT22;25297;44.758;11.310;2023-02-17T16:50:50;16.30;72.10
39601;DHT22;25297;44.758;11.310;2023-02-17T16:53:15;16.20;72.00
39601;DHT22;25297;44.758;11.310;2023-02-17T16:55:42;16.20;72.00
39601;DHT22;25297;44.758;11.310;2023-02-17T16:58:17;16.10;71.70
39601;DHT22;25297;44.758;11.310;2023-02-17T17:00:43;16.10;71.80
39601;DHT22;25297;44.758;11.310;2023-02-17T17:03:09;16.00;72.00
39601;DHT22;25297;44.758;11.310;2023-02-17T17:05:35;16.00;72.10
39601;DHT22;25297;44.758;11.310;2023-02-17T17:08:02;15.80;72.30
39601;DHT22;25297;44.758;11.310;2023-02-17T17:10:30;15.80;72.70
39601;DHT22;25297;44.758;11.310;2023-02-17T17:12:56;15.80;72.70
39601;DHT22;25297;44.758;11.310;2023-02-17T17:15:22;15.80;72.20
39601;DHT22;25297;44.758;11.310;2023-02-17T17:17:58;15.70;72.20
39601;DHT22;25297;44.758;11.310;2023-02-17T17:20:27;15.60;72.00
39601;DHT22;25297;44.758;11.310;2023-02-17T17:22:57;15.60;71.90
39601;DHT22;25297;44.758;11.310;2023-02-17T17:25:23;15.50;71.50